Time;durP1;ratioP1;P1;durP2;ratioP2;P2;SDS_P1;SDS_P2;PMS_P1;PMS_P2;Temp;Humidity;BMP_temperature;BMP_pressure;BME280_temperature;BME280_humidity;BME280_pressure;Samples;Min_cycle;Max_cycle;Signal;HPM_P1;HPM_P2
2021/06/20 00:01:28;;;;;;;26.27;6.63;;;24.90;99.90;;;24.23;62.39;96796.91;5045797;28;20107;-64
2021/06/20 00:04:16;;;;;;;28.80;6.68;;;24.90;99.90;;;24.29;62.43;96816.63;5054049;28;20417;-65
2021/06/20 00:07:04;;;;;;;24.13;8.20;;;24.80;99.90;;;23.95;63.86;96834.44;5043592;28;20069;-64
2021/06/20 00:09:51;;;;;;;27.85;7.70;;;24.70;99.90;;;23.76;65.45;96821.50;5038399;28;20139;-64
2021/06/20 00:12:39;;;;;;;27.60;7.70;;;24.50;99.90;;;23.52;66.73;96846.16;5050009;28;20096;-64
2021/06/20 00:15:28;;;;;;;26.95;7.53;;;24.20;99.90;;;23.31;68.38;96868.66;5027804;28;20390;-64
2021/06/20 00:18:16;;;;;;;23.55;7.13;;;24.00;99.90;;;23.29;68.85;96861.84;5047408;28;20049;-64
2021/06/20 00:21:04;;;;;;;25.00;7.97;;;23.90;99.90;;;23.13;69.86;96860.81;5035955;28;20041;-63
2021/06/20 00:23:51;;;;;;;25.50;7.65;;;23.90;99.90;;;23.16;70.35;96878.19;5041506;28;20063;-64
2021/06/20 00:26:39;;;;;;;23.40;7.43;;;23.80;99.90;;;23.04;70.85;96885.59;5044781;28;20130;-64
2021/06/20 00:29:26;;;;;;;29.60;7.88;;;23.70;99.90;;;23.00;71.15;96899.31;5059277;28;20041;-63
2021/06/20 00:32:13;;;;;;;25.13;6.53;;;23.70;99.90;;;23.06;71.31;96870.41;5052934;28;20037;-64
2021/06/20 00:35:01;;;;;;;26.88;6.93;;;23.60;99.90;;;23.15;69.32;96892.44;5063363;28;20147;-63
2021/06/20 00:37:49;;;;;;;23.42;7.07;;;23.60;99.90;;;23.12;69.56;96874.22;5049324;28;20501;-63
2021/06/20 00:40:37;;;;;;;15.40;6.25;;;23.70;99.90;;;23.14;69.26;96874.88;5048596;28;20117;-63
2021/06/20 00:43:24;;;;;;;22.73;6.65;;;23.60;99.90;;;23.03;69.45;96880.47;5060380;28;20113;-64
2021/06/20 00:46:11;;;;;;;20.33;6.07;;;23.70;99.90;;;23.22;68.76;96874.06;5056469;28;20473;-63
2021/06/20 00:48:59;;;;;;;14.15;5.78;;;23.60;99.90;;;23.05;69.34;96866.09;5037439;28;20040;-63
2021/06/20 00:51:46;;;;;;;16.98;4.85;;;23.60;99.90;;;23.00;68.63;96864.91;5060597;28;20474;-64
2021/06/20 00:54:34;;;;;;;21.70;5.35;;;23.60;99.90;;;22.98;67.05;96873.78;5039376;28;20083;-64
2021/06/20 00:57:22;;;;;;;12.60;4.15;;;23.50;99.90;;;22.98;64.30;96870.34;5066710;28;20052;-64
2021/06/20 01:00:11;;;;;;;16.52;2.92;;;23.50;99.90;;;22.83;63.05;96867.47;5065705;28;20044;-64
2021/06/20 01:02:59;;;;;;;12.70;3.00;;;23.50;99.90;;;22.71;63.59;96885.44;5052059;28;20052;-64
2021/06/20 01:05:46;;;;;;;9.80;3.47;;;23.40;99.90;;;22.81;64.12;96879.19;5065595;28;20508;-64
2021/06/20 01:08:35;;;;;;;13.73;3.20;;;23.30;99.90;;;22.52;63.06;96897.09;5068174;28;20068;-64
2021/06/20 01:11:22;;;;;;;8.75;2.55;;;23.20;99.90;;;22.35;63.05;96887.38;5054322;28;20066;-63
2021/06/20 01:14:09;;;;;;;12.70;3.38;;;23.20;99.90;;;22.24;63.51;96882.38;5046741;28;20517;-63
2021/06/20 01:16:57;;;;;;;10.48;2.28;;;23.00;99.90;;;22.23;63.74;96891.28;5052412;28;20178;-64
2021/06/20 01:19:44;;;;;;;12.02;3.00;;;22.90;99.90;;;22.26;63.86;96875.94;5055316;28;20049;-64
2021/06/20 01:22:34;;;;;;;9.48;1.95;;;22.90;99.90;;;22.01;64.65;96871.44;5050098;28;20178;-64
2021/06/20 01:25:24;;;;;;;10.98;2.72;;;22.70;99.90;;;21.92;64.35;96884.59;5049169;28;20123;-64
2021/06/20 01:28:14;;;;;;;9.43;2.25;;;22.60;99.90;;;21.88;64.28;96887.69;5052504;28;20584;-64
2021/06/20 01:31:04;;;;;;;10.02;2.17;;;22.50;99.90;;;21.90;64.16;96883.09;5050709;28;20122;-64
2021/06/20 01:33:51;;;;;;;10.10;2.20;;;22.50;99.90;;;21.77;64.62;96912.53;5049917;28;20513;-63
2021/06/20 01:36:39;;;;;;;10.32;2.35;;;22.40;99.90;;;21.58;65.65;96883.66;5049405;28;20076;-64
2021/06/20 01:39:26;;;;;;;8.60;2.05;;;22.40;99.90;;;21.47;65.96;96895.25;5051302;28;20460;-65
2021/06/20 01:42:17;;;;;;;8.27;2.30;;;22.20;99.90;;;21.57;66.07;96897.81;5047066;28;20057;-64
2021/06/20 01:45:08;;;;;;;10.07;2.50;;;22.20;99.90;;;21.52;66.11;96890.34;5052145;28;20053;-64
2021/06/20 01:47:59;;;;;;;13.65;2.45;;;22.10;99.90;;;21.44;66.68;96895.53;5049658;28;20083;-64
2021/06/20 01:50:46;;;;;;;11.35;2.17;;;22.00;99.90;;;21.16;67.84;96885.00;5050069;28;20080;-64
2021/06/20 01:53:36;;;;;;;9.45;2.33;;;22.00;99.90;;;21.07;68.62;96902.56;5050870;28;20048;-64
2021/06/20 01:56:23;;;;;;;14.25;2.88;;;21.90;99.90;;;21.14;68.38;96902.78;5051828;28;20037;-63
2021/06/20 01:59:10;;;;;;;9.85;3.05;;;21.80;99.90;;;21.14;68.59;96899.31;5049168;28;20122;-64
2021/06/20 02:01:57;;;;;;;9.90;2.30;;;21.80;99.90;;;21.23;68.32;96912.47;5050893;28;20045;-64
2021/06/20 02:04:46;;;;;;;12.13;3.03;;;21.70;99.90;;;20.91;69.89;96910.28;5046065;28;20049;-63
2021/06/20 02:07:35;;;;;;;10.55;3.45;;;21.60;99.90;;;20.99;69.79;96913.03;5034389;28;20040;-63
2021/06/20 02:10:23;;;;;;;12.52;3.05;;;21.60;99.90;;;20.94;70.15;96919.69;5050235;28;20049;-63
2021/06/20 02:13:10;;;;;;;8.98;2.78;;;21.60;99.90;;;20.98;70.34;96907.88;5060441;28;20385;-63
2021/06/20 02:15:57;;;;;;;8.00;2.67;;;21.50;99.90;;;20.83;71.30;96936.56;5062587;28;20138;-64
2021/06/20 02:18:45;;;;;;;8.90;2.50;;;21.50;99.90;;;20.66;72.14;96961.88;5052010;28;20065;-64
2021/06/20 02:21:32;;;;;;;14.75;3.28;;;21.40;99.90;;;20.52;72.59;96996.56;5049120;28;20524;-64
2021/06/20 02:24:20;;;;;;;12.40;2.47;;;21.40;99.90;;;20.50;72.77;96983.53;5049323;28;20448;-64
2021/06/20 02:27:10;;;;;;;9.90;2.38;;;21.30;99.90;;;20.37;73.47;96988.28;5048783;28;20080;-63
2021/06/20 02:29:57;;;;;;;10.50;3.00;;;21.20;99.90;;;20.54;72.71;96994.63;5047681;28;20068;-64
2021/06/20 02:32:46;;;;;;;6.97;2.38;;;21.10;99.90;;;20.27;74.12;96999.66;5041633;28;20084;-63
2021/06/20 02:35:33;;;;;;;9.52;2.70;;;21.10;99.90;;;20.24;74.26;97001.75;5033201;28;20033;-63
2021/06/20 02:38:20;;;;;;;13.38;2.60;;;21.00;99.90;;;20.28;74.46;97000.50;5050755;28;20045;-63
2021/06/20 02:41:08;;;;;;;8.75;2.88;;;21.00;99.90;;;20.07;75.37;97024.34;5049033;28;20099;-64
2021/06/20 02:43:55;;;;;;;10.07;2.28;;;21.00;99.90;;;20.09;75.65;97014.47;5048783;28;20573;-63
2021/06/20 02:46:43;;;;;;;13.25;3.33;;;20.80;99.90;;;20.21;75.43;97016.03;5047842;28;20136;-63
2021/06/20 02:49:33;;;;;;;11.43;3.38;;;20.80;99.90;;;19.98;76.68;97018.09;5049072;28;20059;-64
2021/06/20 02:52:20;;;;;;;8.88;2.63;;;20.80;99.90;;;19.96;77.00;97013.94;5048759;28;20084;-64
2021/06/20 02:55:07;;;;;;;11.00;2.20;;;20.70;99.90;;;19.96;77.21;97013.94;5050462;28;20094;-63
2021/06/20 02:57:55;;;;;;;10.25;2.65;;;20.60;99.90;;;19.75;77.92;97029.84;5049573;28;20111;-63
2021/06/20 03:00:42;;;;;;;10.90;2.85;;;20.70;99.90;;;19.80;77.87;97035.56;5045837;28;20128;-64
2021/06/20 03:03:29;;;;;;;11.70;2.58;;;20.70;99.90;;;19.85;77.69;97033.34;5048367;28;20072;-64
2021/06/20 03:06:17;;;;;;;9.25;2.90;;;20.60;99.90;;;19.86;77.67;97037.63;5036584;28;20103;-64
2021/06/20 03:09:09;;;;;;;10.55;2.53;;;20.60;99.90;;;19.94;77.46;97029.88;5047690;28;20061;-64
2021/06/20 03:11:57;;;;;;;8.98;3.20;;;20.60;99.90;;;19.85;77.99;97049.13;5035226;28;20080;-64
2021/06/20 03:14:46;;;;;;;8.80;2.70;;;20.50;99.90;;;19.83;78.33;97048.44;5048481;28;20068;-64
2021/06/20 03:17:33;;;;;;;9.63;2.80;;;20.40;99.90;;;19.81;78.55;97043.31;5049353;28;20063;-64
2021/06/20 03:20:23;;;;;;;8.82;2.72;;;20.50;99.90;;;19.90;78.08;97038.19;5046828;28;20045;-64
2021/06/20 03:23:11;;;;;;;9.23;2.63;;;20.50;99.90;;;19.68;78.66;97042.69;5043648;28;20045;-64
2021/06/20 03:25:59;;;;;;;11.10;3.05;;;20.40;99.90;;;19.57;79.38;97056.81;5048114;28;20053;-64
2021/06/20 03:28:46;;;;;;;10.02;2.25;;;20.40;99.90;;;19.65;78.69;97045.59;5050517;28;20425;-63
2021/06/20 03:31:33;;;;;;;11.75;2.67;;;20.30;99.90;;;19.63;78.63;97058.06;5035130;28;20191;-63
2021/06/20 03:34:22;;;;;;;9.05;2.20;;;20.30;99.90;;;19.46;79.34;97059.53;5048826;28;20401;-64
2021/06/20 03:37:09;;;;;;;9.82;2.25;;;20.30;99.90;;;19.42;79.65;97068.66;5048349;28;20151;-63
2021/06/20 03:40:01;;;;;;;6.00;2.30;;;20.30;99.90;;;19.55;78.94;97058.75;5047662;28;20049;-62
2021/06/20 03:42:48;;;;;;;7.43;2.30;;;20.20;99.90;;;19.62;79.09;97066.94;5031661;28;20076;-63
2021/06/20 03:45:36;;;;;;;8.13;2.50;;;20.20;99.90;;;19.50;79.27;97076.75;5047370;28;20057;-64
2021/06/20 03:48:23;;;;;;;7.47;2.20;;;20.30;99.90;;;19.63;78.70;97074.69;5035256;28;20082;-64
2021/06/20 03:51:10;;;;;;;6.43;2.43;;;20.20;99.90;;;19.48;78.97;97064.66;5046934;28;20401;-64
2021/06/20 03:53:58;;;;;;;11.13;2.42;;;20.20;99.90;;;19.33;79.16;97080.81;5047150;28;20075;-64
2021/06/20 03:56:45;;;;;;;7.85;2.30;;;20.20;99.90;;;19.32;79.72;97067.81;5049475;28;20095;-64
2021/06/20 03:59:33;;;;;;;7.95;2.03;;;20.10;99.90;;;19.27;79.54;97062.91;5048410;28;20424;-64
2021/06/20 04:02:20;;;;;;;7.53;2.35;;;20.10;99.90;;;19.36;79.12;97048.13;5043120;28;20198;-63
2021/06/20 04:05:11;;;;;;;9.25;2.08;;;20.10;99.90;;;19.35;79.14;97055.19;5045045;28;20077;-63
2021/06/20 04:08:02;;;;;;;8.82;2.08;;;20.10;99.90;;;19.28;79.08;97046.19;5037766;28;20041;-64
2021/06/20 04:10:49;;;;;;;12.50;2.30;;;20.10;99.90;;;19.16;79.75;97055.13;5021571;28;20037;-63
2021/06/20 04:13:37;;;;;;;14.02;2.50;;;20.10;99.90;;;19.30;79.09;97057.41;5032877;28;20057;-64
2021/06/20 04:16:24;;;;;;;11.52;2.05;;;20.20;99.90;;;19.31;78.67;97064.31;5045888;28;20033;-64
2021/06/20 04:19:12;;;;;;;6.03;2.17;;;20.20;99.90;;;19.30;78.76;97056.59;5047684;28;20112;-63
2021/06/20 04:22:00;;;;;;;9.35;2.22;;;20.20;99.90;;;19.35;78.62;97063.09;5046500;28;20454;-64
2021/06/20 04:24:47;;;;;;;10.93;2.47;;;20.30;99.90;;;19.38;78.18;97073.34;5044857;28;20410;-64
2021/06/20 04:27:35;;;;;;;6.85;2.08;;;20.30;99.90;;;19.39;77.96;97082.09;5045155;28;20052;-64
2021/06/20 04:30:24;;;;;;;9.23;2.05;;;20.30;99.90;;;19.38;77.88;97067.25;5040120;28;20052;-64
2021/06/20 04:33:11;;;;;;;7.45;1.92;;;20.20;99.90;;;19.47;77.56;97086.69;5047658;28;20440;-63
2021/06/20 04:35:59;;;;;;;11.52;2.53;;;20.20;99.90;;;19.49;77.34;97084.75;5029911;28;20042;-64
2021/06/20 04:38:47;;;;;;;8.20;1.98;;;20.20;99.90;;;19.57;76.77;97090.22;5038201;28;20555;-64
2021/06/20 04:41:37;;;;;;;8.15;2.10;;;20.20;99.90;;;19.45;77.86;97089.44;5048243;28;20157;-64
2021/06/20 04:44:43;;;;;;;6.35;1.75;;;20.30;99.90;;;19.46;77.77;97096.41;5047523;28;20103;-63
2021/06/20 04:47:31;;;;;;;11.95;2.85;;;20.20;99.90;;;19.33;78.15;97086.06;5046682;28;20041;-64
2021/06/20 04:50:18;;;;;;;5.78;2.10;;;20.20;99.90;;;19.25;78.85;97090.31;5033106;28;20041;-63
2021/06/20 04:53:06;;;;;;;9.40;2.20;;;20.20;99.90;;;19.43;77.80;97084.34;5045364;28;20123;-62
2021/06/20 04:55:53;;;;;;;7.72;2.25;;;20.20;99.90;;;19.49;77.32;97092.66;5061888;28;20045;-64
2021/06/20 04:58:41;;;;;;;8.00;2.13;;;20.20;99.90;;;19.56;77.07;97081.44;5043987;28;20069;-64
2021/06/20 05:01:29;;;;;;;8.05;2.00;;;20.10;99.90;;;19.46;77.84;97092.94;5049077;28;20405;-63
2021/06/20 05:04:16;;;;;;;6.28;1.90;;;20.20;99.90;;;19.44;77.76;97103.59;5050741;28;20504;-64
2021/06/20 05:07:04;;;;;;;7.20;1.70;;;20.30;99.90;;;19.28;78.10;97105.88;5053503;28;20274;-64
2021/06/20 05:09:51;;;;;;;5.40;1.52;;;20.30;99.90;;;19.47;77.28;97110.38;5052707;28;20104;-63
2021/06/20 05:12:38;;;;;;;4.20;1.50;;;20.30;99.90;;;19.57;76.79;97116.53;5051833;28;20536;-63
2021/06/20 05:15:26;;;;;;;5.78;1.98;;;20.30;99.90;;;19.65;76.99;97112.25;5047016;28;20107;-64
2021/06/20 05:18:14;;;;;;;6.38;1.98;;;20.40;99.90;;;19.55;76.92;97119.28;5051909;28;20187;-64
2021/06/20 05:21:01;;;;;;;6.35;1.90;;;20.40;99.90;;;19.30;77.91;97114.47;5052841;28;20056;-64
2021/06/20 05:23:48;;;;;;;6.45;2.05;;;20.40;99.90;;;19.37;77.81;97120.88;5049018;28;20504;-64
2021/06/20 05:26:36;;;;;;;6.68;2.05;;;20.30;99.90;;;19.34;78.08;97121.13;5048227;28;20424;-63
2021/06/20 05:29:23;;;;;;;5.05;1.77;;;20.40;99.90;;;19.73;76.68;97114.25;5051029;28;20053;-64
2021/06/20 05:32:11;;;;;;;10.43;2.10;;;20.30;99.90;;;19.51;77.41;97114.41;5052078;28;20370;-64
2021/06/20 05:34:58;;;;;;;8.70;1.90;;;20.40;99.90;;;19.63;77.09;97103.63;5037967;28;20072;-64
2021/06/20 05:37:45;;;;;;;8.27;1.58;;;20.50;99.90;;;20.01;75.33;97101.28;5050689;28;20589;-64
2021/06/20 05:40:35;;;;;;;8.07;1.88;;;20.70;99.90;;;19.66;76.32;97105.19;5051180;28;20115;-63
2021/06/20 05:43:22;;;;;;;10.38;2.15;;;20.70;99.90;;;19.57;77.10;97114.72;5050060;28;20049;-63
2021/06/20 05:46:09;;;;;;;11.15;2.25;;;20.70;99.90;;;19.75;75.82;97103.56;5044267;28;20064;-64
2021/06/20 05:48:57;;;;;;;9.23;2.30;;;20.60;99.90;;;19.46;77.05;97101.66;5050416;28;20059;-64
2021/06/20 05:51:44;;;;;;;6.18;1.65;;;20.70;99.90;;;19.72;76.77;97104.69;5048384;28;20351;-64
2021/06/20 05:54:32;;;;;;;7.15;1.80;;;20.70;99.90;;;19.51;76.94;97099.44;5050590;28;20116;-64
2021/06/20 05:57:21;;;;;;;6.75;2.10;;;20.70;99.90;;;19.55;77.15;97102.66;5050924;28;20080;-64
2021/06/20 06:00:10;;;;;;;8.40;1.90;;;20.80;99.90;;;19.75;76.49;97114.09;5051975;28;20687;-64
2021/06/20 06:02:59;;;;;;;5.72;1.75;;;20.80;99.90;;;19.72;76.32;97111.75;5050147;28;20041;-64
2021/06/20 06:05:46;;;;;;;7.63;1.67;;;20.90;99.90;;;19.91;74.94;97103.91;5051788;28;20075;-65
2021/06/20 06:08:33;;;;;;;9.88;1.63;;;21.00;99.90;;;20.18;74.17;97102.41;5047894;28;20072;-64
2021/06/20 06:11:21;;;;;;;7.60;1.80;;;21.00;99.90;;;19.91;75.35;97103.06;5042682;28;20067;-64
2021/06/20 06:14:11;;;;;;;6.03;1.50;;;21.00;99.90;;;20.30;74.42;97124.19;5051018;28;20091;-64
2021/06/20 06:16:58;;;;;;;5.53;1.65;;;21.10;99.90;;;19.85;75.59;97118.44;5047473;28;20182;-64
2021/06/20 06:19:51;;;;;;;7.82;1.58;;;21.10;99.90;;;19.91;75.04;97110.97;5050287;28;20122;-64
2021/06/20 06:22:38;;;;;;;4.85;1.58;;;21.00;99.90;;;19.68;76.68;97107.69;5048968;28;20357;-64
2021/06/20 06:25:26;;;;;;;5.38;1.60;;;21.00;99.90;;;20.39;74.24;97120.75;5048415;28;20100;-64
2021/06/20 06:28:13;;;;;;;6.10;2.15;;;21.10;99.90;;;20.20;74.29;97113.66;5040404;28;20041;-64
2021/06/20 06:31:00;;;;;;;5.78;1.73;;;21.20;99.90;;;19.97;74.95;97102.53;5050898;28;20564;-64
2021/06/20 06:33:48;;;;;;;6.50;1.95;;;21.20;99.90;;;20.12;74.75;97105.63;5049660;28;20497;-64
2021/06/20 06:36:36;;;;;;;6.10;1.65;;;21.30;99.90;;;20.86;72.70;97100.63;5056023;28;20600;-64
2021/06/20 06:39:25;;;;;;;5.53;1.95;;;21.50;99.90;;;20.88;72.18;97093.41;5047406;28;20033;-65
2021/06/20 06:42:13;;;;;;;9.02;2.00;;;21.70;99.90;;;21.12;71.36;97101.81;5047073;28;20171;-64
2021/06/20 06:45:00;;;;;;;4.75;2.10;;;21.90;99.90;;;20.55;72.80;97112.28;5041326;28;20064;-65
2021/06/20 06:47:49;;;;;;;6.10;1.83;;;21.80;99.90;;;20.74;72.50;97125.50;5031241;28;20103;-65
2021/06/20 06:50:36;;;;;;;7.28;2.35;;;21.70;99.90;;;20.85;71.70;97122.72;5034595;28;20058;-65
2021/06/20 06:53:23;;;;;;;8.05;2.47;;;21.70;99.90;;;20.25;73.38;97116.72;5042600;28;20446;-65
2021/06/20 06:56:11;;;;;;;7.38;2.10;;;21.70;99.90;;;20.16;73.40;97121.03;5050653;28;20056;-64
2021/06/20 06:58:59;;;;;;;6.32;1.90;;;21.80;99.90;;;20.38;72.89;97117.28;5048932;28;20110;-65
2021/06/20 07:01:46;;;;;;;7.18;2.00;;;21.40;99.90;;;20.08;74.35;97117.41;5047539;28;20068;-64
2021/06/20 07:04:33;;;;;;;6.40;2.15;;;21.30;99.90;;;20.04;74.46;97122.91;5050113;28;20044;-65
2021/06/20 07:07:21;;;;;;;8.10;1.63;;;21.40;99.90;;;20.41;72.10;97132.84;5050073;28;20520;-64
2021/06/20 07:10:09;;;;;;;7.57;2.15;;;21.40;99.90;;;20.80;71.94;97134.66;5046587;28;20094;-65
2021/06/20 07:12:56;;;;;;;6.82;1.85;;;21.50;99.90;;;20.96;70.91;97140.22;5039417;28;20126;-64
2021/06/20 07:15:43;;;;;;;6.63;1.60;;;21.60;99.90;;;21.34;69.13;97145.53;5050427;28;20048;-64
2021/06/20 07:18:33;;;;;;;4.60;1.60;;;21.90;99.90;;;21.74;67.63;97136.53;5036824;28;20179;-64
2021/06/20 07:21:21;;;;;;;9.85;1.85;;;22.40;99.90;;;21.67;67.78;97126.56;5030402;28;20520;-64
2021/06/20 07:24:09;;;;;;;4.85;1.63;;;22.60;99.90;;;22.43;65.79;97122.78;5043199;28;20037;-65
2021/06/20 07:26:56;;;;;;;5.85;1.77;;;22.90;99.90;;;22.61;64.48;97117.50;5046460;28;20057;-65
2021/06/20 07:29:44;;;;;;;4.50;1.13;;;23.40;99.90;;;22.84;64.65;97101.16;5039473;28;20080;-65
2021/06/20 07:32:31;;;;;;;4.82;1.92;;;23.50;99.90;;;23.16;62.63;97104.06;5045317;28;20044;-64
2021/06/20 07:35:18;;;;;;;5.97;1.85;;;23.90;99.90;;;22.40;63.88;97109.88;5046863;28;20159;-65
2021/06/20 07:38:06;;;;;;;5.95;1.45;;;23.80;99.90;;;21.49;65.03;97107.19;5046496;28;20033;-64
2021/06/20 07:40:54;;;;;;;8.48;1.88;;;23.60;99.90;;;21.33;64.73;97099.00;5047431;28;20044;-65
2021/06/20 07:43:45;;;;;;;4.95;1.40;;;23.30;99.90;;;21.37;65.01;97095.09;5046658;28;20041;-64
2021/06/20 07:46:33;;;;;;;3.20;1.25;;;23.00;99.90;;;22.12;63.30;97078.19;5033603;28;20047;-64
2021/06/20 07:49:20;;;;;;;5.45;1.63;;;23.20;99.90;;;21.70;63.54;97078.72;5044513;28;20049;-65
2021/06/20 07:52:08;;;;;;;6.68;1.83;;;23.10;99.90;;;21.51;66.20;97084.09;5034106;28;20068;-65
2021/06/20 07:54:55;;;;;;;6.80;1.65;;;23.10;99.90;;;22.09;64.49;97088.22;5049258;28;20048;-65
2021/06/20 07:57:42;;;;;;;5.95;2.00;;;23.00;99.90;;;22.60;63.75;97085.91;5049406;28;20110;-65
2021/06/20 08:00:29;;;;;;;6.00;1.40;;;23.10;99.90;;;22.52;62.81;97095.44;5047657;28;20068;-64
2021/06/20 08:03:17;;;;;;;5.45;1.48;;;23.60;99.90;;;23.33;59.98;97089.09;5049917;28;20062;-65
2021/06/20 08:06:04;;;;;;;5.53;1.52;;;24.20;99.90;;;21.89;64.00;97106.00;5048932;28;20045;-64
2021/06/20 08:08:57;;;;;;;4.93;1.38;;;23.90;99.90;;;22.83;61.68;97086.25;5041525;28;20041;-65
2021/06/20 08:11:44;;;;;;;4.97;1.40;;;23.60;99.90;;;23.27;59.11;97079.13;5044989;28;20126;-64
2021/06/20 08:14:32;;;;;;;5.20;1.40;;;24.00;99.90;;;23.45;58.95;97081.72;5033179;28;20037;-65
2021/06/20 08:17:20;;;;;;;4.78;1.60;;;24.40;99.90;;;23.68;58.55;97083.81;5039160;28;20052;-65
2021/06/20 08:20:11;;;;;;;6.57;2.17;;;24.80;99.90;;;23.86;57.62;97075.78;5046101;28;20626;-65
2021/06/20 08:22:58;;;;;;;6.18;1.33;;;24.80;99.90;;;22.67;59.77;97077.22;5040954;28;20071;-65
2021/06/20 08:25:46;;;;;;;5.80;1.30;;;24.60;99.90;;;23.20;59.15;97067.50;5048918;28;20048;-65
2021/06/20 08:28:34;;;;;;;5.63;1.50;;;24.10;99.90;;;22.82;61.28;97074.84;5045784;28;20064;-65
2021/06/20 08:31:22;;;;;;;6.95;1.58;;;23.90;99.90;;;22.18;59.54;97074.09;5047089;28;20097;-65
2021/06/20 08:34:10;;;;;;;4.68;1.33;;;24.00;99.90;;;22.78;58.65;97070.84;5042945;28;20056;-65
2021/06/20 08:36:59;;;;;;;5.47;1.30;;;24.00;99.90;;;23.09;59.38;97073.06;5049314;28;20773;-65
2021/06/20 08:39:46;;;;;;;4.40;1.20;;;24.10;99.90;;;23.44;57.88;97073.91;5033515;28;20095;-65
2021/06/20 08:42:34;;;;;;;4.65;1.13;;;24.40;99.90;;;23.14;58.42;97090.13;5045567;28;20179;-65
2021/06/20 08:45:21;;;;;;;5.93;1.48;;;24.30;99.90;;;23.29;57.90;97079.81;5031743;28;20071;-65
2021/06/20 08:48:12;;;;;;;3.72;1.10;;;24.30;99.90;;;22.13;61.07;97100.16;5047583;28;20045;-65
2021/06/20 08:51:00;;;;;;;5.72;1.40;;;23.90;99.90;;;22.84;59.57;97096.69;5026913;28;20033;-65
2021/06/20 08:53:50;;;;;;;2.67;1.10;;;23.80;99.90;;;23.27;60.54;97092.38;5048468;28;20474;-65
2021/06/20 08:56:37;;;;;;;3.65;1.25;;;24.00;99.90;;;23.42;58.97;97087.31;5030051;28;20105;-65
2021/06/20 08:59:26;;;;;;;5.07;1.13;;;24.30;99.90;;;23.52;58.14;97092.50;5029859;28;20045;-64
2021/06/20 09:02:22;;;;;;;4.63;1.40;;;24.70;99.90;;;23.31;58.69;97091.06;5044084;28;20111;-65
2021/06/20 09:05:17;;;;;;;3.92;1.10;;;24.50;99.90;;;23.90;57.54;97095.66;5048168;28;20150;-65
2021/06/20 09:08:15;;;;;;;2.47;1.10;;;24.40;99.90;;;24.00;56.64;97081.28;5036322;28;20060;-65
2021/06/20 09:11:02;;;;;;;4.57;1.23;;;24.80;99.90;;;24.06;56.43;97086.91;5042344;28;20041;-64
2021/06/20 09:13:50;;;;;;;4.93;1.85;;;25.10;99.90;;;23.52;57.42;97084.56;5039204;28;20132;-64
2021/06/20 09:16:53;;;;;;;5.43;1.50;;;24.80;99.90;;;23.64;57.89;97070.03;5030889;28;20037;-65
2021/06/20 09:19:40;;;;;;;4.25;1.40;;;24.60;99.90;;;23.42;57.34;97076.72;5032013;28;20038;-65
2021/06/20 09:22:29;;;;;;;4.55;1.10;;;25.00;99.90;;;24.13;56.32;97083.47;5038284;28;20044;-65
2021/06/20 09:25:26;;;;;;;7.18;1.45;;;24.80;99.90;;;24.89;55.69;97073.59;5044894;28;20029;-65
2021/06/20 09:28:14;;;;;;;6.25;1.20;;;25.30;99.90;;;25.10;54.88;97067.75;5040967;28;20041;-64
2021/06/20 09:31:03;;;;;;;7.97;1.30;;;25.80;99.90;;;24.09;54.95;97062.75;5043400;28;20099;-65
2021/06/20 09:33:59;;;;;;;5.13;1.30;;;26.00;99.90;;;25.17;52.19;97055.44;5041453;28;20080;-65
2021/06/20 09:36:47;;;;;;;3.65;1.00;;;25.90;99.90;;;25.75;51.34;97057.91;5041256;28;20048;-65
2021/06/20 09:39:35;;;;;;;3.17;1.00;;;26.40;99.90;;;24.52;53.70;97047.53;5034146;28;20053;-65
2021/06/20 09:42:22;;;;;;;4.05;1.35;;;26.30;99.90;;;24.21;55.26;97054.31;5048511;28;20064;-65
2021/06/20 09:45:10;;;;;;;4.55;1.25;;;25.50;99.90;;;23.01;57.49;97059.78;5055410;28;20508;-64
2021/06/20 09:47:59;;;;;;;5.50;1.40;;;25.30;99.90;;;25.01;52.96;97056.28;5035710;28;20531;-65
2021/06/20 09:50:46;;;;;;;3.38;1.20;;;25.40;99.90;;;25.92;51.21;97051.53;5060452;28;20049;-65
2021/06/20 09:53:39;;;;;;;4.95;1.10;;;26.10;99.90;;;25.49;51.75;97050.22;5064610;28;20480;-65
2021/06/20 09:56:30;;;;;;;4.43;1.20;;;26.00;99.90;;;26.69;49.30;97040.06;5047965;28;20041;-64
2021/06/20 09:59:41;;;;;;;2.67;1.00;;;26.30;99.90;;;28.08;46.66;97033.16;5046173;28;20040;-64
2021/06/20 10:02:13;;;;;;;3.90;1.10;;;27.50;99.90;;;28.96;44.33;97038.25;5045374;28;20463;-64
2021/06/20 10:04:41;;;;;;;3.25;1.02;;;28.50;99.90;;;27.40;44.19;97047.69;5051350;28;20075;-65
2021/06/20 10:07:10;;;;;;;7.72;1.40;;;28.50;99.90;;;26.29;47.03;97042.00;5049075;28;20041;-65
2021/06/20 10:10:01;;;;;;;4.00;0.98;;;28.10;99.90;;;27.20;44.95;97040.22;5049151;28;20053;-65
2021/06/20 10:12:29;;;;;;;4.47;1.45;;;28.00;99.90;;;26.29;48.55;97039.34;5050875;28;20041;-65
2021/06/20 10:15:01;;;;;;;5.88;1.30;;;27.80;99.90;;;26.80;45.83;97034.28;5033388;28;20049;-65
2021/06/20 10:17:36;;;;;;;4.70;0.93;;;27.70;99.90;;;28.50;44.79;97038.72;5030592;28;20041;-65
2021/06/20 10:20:31;;;;;;;3.97;1.02;;;28.00;99.90;;;27.00;45.37;97023.94;5049143;28;20060;-65
2021/06/20 10:23:23;;;;;;;4.05;1.00;;;28.20;99.90;;;27.85;43.54;97001.31;5048194;28;20512;-65
2021/06/20 10:26:10;;;;;;;4.45;1.10;;;28.20;99.90;;;28.62;44.65;96991.75;5039969;28;20513;-65
2021/06/20 10:28:57;;;;;;;4.28;1.00;;;28.20;99.90;;;28.55;40.65;96996.22;5044704;28;20067;-65
2021/06/20 10:31:46;;;;;;;4.70;1.20;;;29.10;99.60;;;27.45;43.25;97013.31;5045798;28;20114;-65
2021/06/20 10:34:33;;;;;;;6.22;1.17;;;28.90;98.90;;;26.69;44.49;97006.28;5051475;28;20068;-65
2021/06/20 10:37:05;;;;;;;3.28;1.02;;;28.20;99.10;;;26.49;45.70;97011.22;5031517;28;20416;-65
2021/06/20 10:39:32;;;;;;;6.57;3.70;;;27.80;99.70;;;26.77;45.86;97012.53;5048914;28;20041;-65
2021/06/20 10:42:08;;;;;;;5.28;1.20;;;27.80;99.90;;;27.83;43.82;96997.97;5049393;28;20048;-65
2021/06/20 10:44:50;;;;;;;6.82;3.17;;;27.90;99.90;;;28.10;42.46;97001.78;5041966;28;20045;-64
2021/06/20 10:47:39;;;;;;;2.55;1.00;;;28.40;99.90;;;27.04;44.03;96990.59;5026878;28;20478;-65
2021/06/20 10:50:13;;;;;;;11.65;5.88;;;28.50;98.80;;;27.94;44.01;96972.69;5032156;28;20045;-65
2021/06/20 10:52:58;;;;;;;3.20;1.10;;;28.60;99.90;;;29.32;40.58;96981.13;5031131;28;20134;-64
2021/06/20 10:55:25;;;;;;;4.35;1.35;;;29.20;99.40;;;30.54;39.97;96976.72;5031504;28;20055;-65
2021/06/20 10:58:29;;;;;;;4.15;1.00;;;29.40;99.90;;;28.86;42.79;96974.47;5048468;28;20064;-65
2021/06/20 11:01:14;;;;;;;2.97;1.10;;;30.20;98.90;;;29.05;40.97;96956.91;5050007;28;20036;-64
2021/06/20 11:03:46;;;;;;;3.83;1.85;;;29.90;98.30;;;27.70;42.69;96966.63;5045945;28;20444;-65
2021/06/20 11:06:34;;;;;;;3.35;0.90;;;29.40;98.00;;;28.83;41.32;96950.84;5049634;28;20064;-65
2021/06/20 11:09:22;;;;;;;7.20;1.30;;;29.10;98.50;;;30.08;38.75;96940.84;5038273;28;20041;-65
2021/06/20 11:12:02;;;;;;;3.97;1.15;;;29.60;98.50;;;30.73;36.27;96932.22;5047591;28;20048;-65
2021/06/20 11:14:29;;;;;;;4.72;0.95;;;30.00;97.40;;;30.95;36.31;96933.66;5068149;28;20052;-65
2021/06/20 11:17:08;;;;;;;5.03;0.77;;;30.60;96.90;;;31.44;35.84;96934.09;5070819;28;20090;-65
2021/06/20 11:19:35;;;;;;;2.85;0.70;;;31.30;96.90;;;32.78;32.99;96936.69;5066465;28;20048;-65
2021/06/20 11:22:11;;;;;;;3.78;1.15;;;32.00;95.50;;;30.84;35.54;96937.78;5039920;28;20072;-65
2021/06/20 11:24:50;;;;;;;2.20;0.95;;;31.10;95.40;;;30.18;36.10;96932.44;5068036;28;20048;-65
2021/06/20 11:27:20;;;;;;;7.75;1.55;;;30.60;95.40;;;31.59;35.69;96928.44;5031106;28;20041;-65
2021/06/20 11:29:59;;;;;;;4.47;1.38;;;30.90;96.50;;;29.14;36.68;96937.06;5045912;28;20072;-65
2021/06/20 11:32:34;;;;;;;1.80;0.80;;;31.50;94.40;;;29.18;36.86;96932.97;5038597;28;20049;-65
2021/06/20 11:35:12;;;;;;;4.05;1.02;;;31.00;93.80;;;30.08;37.26;96922.09;5061852;28;20037;-65
2021/06/20 11:37:46;;;;;;;2.72;1.00;;;31.00;95.00;;;29.58;38.02;96924.25;5064479;28;20170;-65
2021/06/20 11:40:21;;;;;;;4.10;0.93;;;31.00;95.40;;;31.15;36.72;96924.69;5040470;28;20045;-65